Terminal Aerodrome Forecast
Issued by NWS Mt. Holly, NJ

Home | Current Version | Previous Version | Text Only | Print | Product List | Glossary On
Versions: 1 2 3 4 5 6 7 8 9 10 11 12 13 14 15 16 17 18 19 20 21 22 23 24 25 26 27 28 29 30 31 32 33 34 35 36 37 38 39 40 41 42 43 44 45 46 47 48 49 50
000
FTAK31 PANC 192048 AAA
TAFABE
TAF AMD
PABE 192048Z 1921/2018 04015KT 2SM -SN SCT007 OVC025
      TEMPO 1921/1923 04015G25KT 1/2SM SN BLSN BKN007 OVC010
     FM192300 04017G25KT 1/2SM -SN BLSN BKN007 OVC012
     FM200200 03020G30KT 1/2SM SN BLSN BKN007 OVC012
     FM200800 02020G30KT 1SM -SHSN BLSN SCT007 BKN012
     FM201500 35015G25KT 2SM -SHSN SCT007 BKN012=

USA.gov is the U.S. government's official web portal to all federal, state and local government web resources and services.